createdAt,value
2018-07-23T07:13:32.855Z,26.40
2018-07-23T07:16:01.488Z,26.10
2018-07-23T07:18:29.954Z,26.60
2018-07-23T07:20:58.507Z,27.20
2018-07-23T07:23:27.067Z,27.70
2018-07-23T07:25:55.570Z,27.40
2018-07-23T07:28:25.219Z,27.30
2018-07-23T07:30:53.633Z,27.00
2018-07-23T07:33:22.036Z,26.60
2018-07-23T07:35:50.347Z,26.30
2018-07-23T07:38:19.824Z,26.10
2018-07-23T07:40:55.509Z,26.40
2018-07-23T07:43:27.404Z,26.20
2018-07-23T07:45:56.726Z,26.00
2018-07-23T07:48:25.994Z,26.20
2018-07-23T07:50:54.334Z,26.70
2018-07-23T07:53:25.571Z,26.80
2018-07-23T07:55:53.876Z,26.50
2018-07-23T07:58:22.238Z,26.90
2018-07-23T08:00:50.576Z,27.90
2018-07-23T08:03:19.973Z,29.20
2018-07-23T08:05:50.149Z,30.50
2018-07-23T08:08:19.280Z,31.70
2018-07-23T08:13:16.973Z,29.90
2018-07-23T08:15:46.239Z,27.90
2018-07-23T08:18:16.634Z,26.70
2018-07-23T08:20:47.011Z,26.10
2018-07-23T08:23:20.684Z,26.80
2018-07-23T08:25:48.943Z,28.50
2018-07-23T08:28:19.286Z,29.60
2018-07-23T08:30:48.692Z,30.10
2018-07-23T08:33:16.928Z,30.40
2018-07-23T08:35:48.554Z,29.10
2018-07-23T08:38:17.786Z,28.00
2018-07-23T08:40:47.086Z,28.90
2018-07-23T08:43:17.938Z,30.00
2018-07-23T08:45:48.144Z,31.10
2018-07-23T08:48:18.425Z,31.50
2018-07-23T08:50:46.899Z,31.30
2018-07-23T08:53:15.488Z,30.10
2018-07-23T08:55:43.927Z,30.60
2018-07-23T08:58:12.331Z,31.30
2018-07-23T09:00:44.059Z,30.40
2018-07-23T09:03:15.842Z,28.90
2018-07-23T09:05:44.114Z,27.60
2018-07-23T09:09:15.354Z,26.90
2018-07-23T09:11:44.767Z,28.20
2018-07-23T09:14:14.120Z,30.10
2018-07-23T09:16:43.368Z,30.00
2018-07-23T09:19:13.692Z,31.40
2018-07-23T09:21:42.020Z,32.20
2018-07-23T09:24:16.990Z,32.50
2018-07-23T09:26:45.323Z,32.70
2018-07-23T09:29:13.586Z,33.50
2018-07-23T09:31:41.985Z,33.60
2018-07-23T09:34:10.294Z,32.10
2018-07-23T09:36:38.786Z,30.90
2018-07-23T09:39:11.180Z,30.90
2018-07-23T09:41:40.610Z,32.10
2018-07-23T09:44:09.180Z,33.00
2018-07-23T09:46:37.548Z,33.80
2018-07-23T09:49:05.972Z,34.40
2018-07-23T09:51:34.531Z,34.30
2018-07-23T09:54:02.915Z,34.40
2018-07-23T09:56:32.646Z,35.20
2018-07-23T09:59:01.334Z,35.40
2018-07-23T10:01:31.868Z,33.40
2018-07-23T10:06:35.288Z,32.40
2018-07-23T10:09:07.274Z,31.30
2018-07-23T10:11:39.105Z,30.90
2018-07-23T10:14:09.226Z,30.90
2018-07-23T10:16:41.765Z,30.60
2018-07-23T10:19:10.116Z,30.20
2018-07-23T10:21:40.467Z,29.70
2018-07-23T10:24:08.766Z,30.10
2018-07-23T10:26:37.224Z,32.00
2018-07-23T10:29:06.765Z,33.40
2018-07-23T10:31:36.024Z,34.20
2018-07-23T10:34:05.530Z,35.40
2018-07-23T10:36:34.044Z,34.20
2018-07-23T10:41:32.981Z,31.00
2018-07-23T10:44:04.745Z,30.60
2018-07-23T10:46:34.092Z,30.70
2018-07-23T10:49:06.268Z,31.60
2018-07-23T10:51:35.789Z,32.90
2018-07-23T10:54:05.710Z,34.70
2018-07-23T10:56:34.286Z,35.90
2018-07-23T10:59:02.975Z,36.70
2018-07-23T11:01:31.699Z,37.10
2018-07-23T11:04:00.120Z,35.00
2018-07-23T11:06:28.503Z,33.60
2018-07-23T11:08:56.935Z,34.10
2018-07-23T11:12:28.012Z,35.20
2018-07-23T11:14:58.443Z,36.40
2018-07-23T11:17:27.046Z,35.30
2018-07-23T11:19:55.389Z,34.60
2018-07-23T11:22:24.032Z,35.40
2018-07-23T11:24:52.498Z,36.00
2018-07-23T11:27:21.667Z,37.10
2018-07-23T11:29:50.200Z,36.20
2018-07-23T11:32:18.828Z,35.30
2018-07-23T11:34:47.193Z,34.10
2018-07-23T11:37:15.569Z,35.10
2018-07-23T11:39:47.403Z,36.40
2018-07-23T11:42:17.676Z,36.80
2018-07-23T11:44:46.130Z,35.90
2018-07-23T11:47:14.811Z,34.50
2018-07-23T11:49:43.256Z,33.50
2018-07-23T11:57:10.951Z,31.90
2018-07-23T11:59:39.467Z,31.10
2018-07-23T12:02:09.304Z,31.20
2018-07-23T12:04:37.930Z,32.10
2018-07-23T12:07:06.926Z,32.60
2018-07-23T12:09:36.257Z,32.50
2018-07-23T12:12:05.018Z,31.60
2018-07-23T12:14:33.694Z,31.40
2018-07-23T12:17:02.031Z,31.70
2018-07-23T12:19:31.366Z,31.90
2018-07-23T12:22:00.182Z,32.20
2018-07-23T12:24:29.547Z,31.30
2018-07-23T12:27:01.258Z,31.70
2018-07-23T12:29:30.529Z,31.30
2018-07-23T12:32:06.682Z,30.90
2018-07-23T12:34:35.217Z,31.00
2018-07-23T12:37:03.467Z,30.70
2018-07-23T12:39:31.841Z,30.80
2018-07-23T12:42:04.153Z,30.60
2018-07-23T12:44:34.553Z,30.80
2018-07-23T12:47:08.930Z,31.80
2018-07-23T12:49:37.338Z,31.80
2018-07-23T12:52:09.025Z,31.10
2018-07-23T12:54:37.280Z,30.40
2018-07-23T12:57:07.768Z,30.10
2018-07-23T12:59:37.156Z,30.00
2018-07-23T13:02:05.506Z,29.70
2018-07-23T13:04:33.927Z,29.30
2018-07-23T13:07:02.325Z,29.40
2018-07-23T13:09:31.914Z,29.30
2018-07-23T13:12:01.861Z,29.10
2018-07-23T13:14:30.244Z,28.90
2018-07-23T13:19:30.477Z,29.50
2018-07-23T13:22:04.820Z,29.70
2018-07-23T13:24:33.280Z,30.40
2018-07-23T13:27:02.640Z,31.10
2018-07-23T13:29:32.367Z,31.40
2018-07-23T13:32:12.424Z,32.30
2018-07-23T13:34:42.829Z,31.80
2018-07-23T13:37:13.150Z,31.70
2018-07-23T13:39:42.721Z,30.70
2018-07-23T13:42:11.945Z,31.30
2018-07-23T13:44:40.297Z,31.80
2018-07-23T13:49:39.033Z,31.10
2018-07-23T13:52:07.537Z,31.30
2018-07-23T13:54:41.398Z,31.20
2018-07-23T13:57:09.671Z,31.40
2018-07-23T13:59:39.266Z,31.80
2018-07-23T14:04:37.973Z,31.70
2018-07-23T14:07:11.909Z,31.70
2018-07-23T14:09:41.436Z,32.00
2018-07-23T14:12:09.949Z,31.80
2018-07-23T14:14:41.682Z,31.80
2018-07-23T14:17:10.151Z,31.90
2018-07-23T14:19:38.671Z,32.00
2018-07-23T14:22:10.746Z,32.10
2018-07-23T14:24:40.007Z,32.60
2018-07-23T14:27:09.700Z,32.70
2018-07-23T14:29:38.534Z,32.40
2018-07-23T14:32:06.908Z,32.00
2018-07-23T14:34:38.396Z,31.80
2018-07-23T14:37:06.736Z,31.30
2018-07-23T14:39:35.046Z,30.90
2018-07-23T14:42:05.554Z,30.90
2018-07-23T14:44:34.976Z,31.00
2018-07-23T14:47:05.723Z,30.70
2018-07-23T14:49:35.249Z,30.70
2018-07-23T14:52:03.709Z,30.50
2018-07-23T14:54:38.720Z,30.90
2018-07-23T14:57:07.351Z,30.70
2018-07-23T14:59:36.788Z,30.90
2018-07-23T15:02:05.262Z,30.40
2018-07-23T15:04:34.102Z,30.40
2018-07-23T15:07:09.377Z,30.10
2018-07-23T15:09:39.870Z,29.60
2018-07-23T15:12:08.375Z,30.00
2018-07-23T15:14:37.595Z,30.30
2018-07-23T15:17:10.161Z,30.10
2018-07-23T15:19:38.469Z,30.30
2018-07-23T15:22:07.864Z,30.40
2018-07-23T15:24:36.373Z,30.20
2018-07-23T15:27:07.004Z,30.30
2018-07-23T15:29:35.310Z,30.30
2018-07-23T15:32:04.639Z,30.30
2018-07-23T15:34:36.512Z,30.30
2018-07-23T15:37:10.883Z,30.40
2018-07-23T15:42:12.319Z,30.40
2018-07-23T15:44:42.102Z,30.20
2018-07-23T15:47:10.424Z,30.10
2018-07-23T15:49:42.291Z,30.10
2018-07-23T15:52:10.733Z,30.20
2018-07-23T15:54:39.189Z,30.40
2018-07-23T15:57:07.596Z,30.30
2018-07-23T15:59:35.980Z,30.00
2018-07-23T16:02:06.520Z,30.10
2018-07-23T16:04:38.689Z,30.10
2018-07-23T16:07:07.105Z,30.20
2018-07-23T16:09:35.466Z,30.40
2018-07-23T16:12:05.666Z,30.40
2018-07-23T16:14:34.013Z,30.50
2018-07-23T16:17:03.515Z,30.00
2018-07-23T16:19:31.916Z,29.70
2018-07-23T16:22:00.482Z,29.60
2018-07-23T16:24:29.746Z,29.50
2018-07-23T16:26:58.055Z,29.40
2018-07-23T16:29:28.627Z,29.00
2018-07-23T16:31:56.954Z,28.80
2018-07-23T16:34:26.353Z,28.60
2018-07-23T16:36:54.712Z,28.60
2018-07-23T16:39:23.042Z,28.40
2018-07-23T16:41:52.681Z,28.40
2018-07-23T16:44:23.065Z,28.50
2018-07-23T16:46:52.474Z,28.60
2018-07-23T16:49:20.971Z,28.40
2018-07-23T16:51:49.283Z,28.50
2018-07-23T16:54:17.591Z,28.50
2018-07-23T16:57:49.296Z,28.60
2018-07-23T17:00:23.383Z,28.60
2018-07-23T17:02:51.817Z,28.30
2018-07-23T17:05:26.904Z,28.20
2018-07-23T17:08:07.317Z,27.90
2018-07-23T17:10:38.666Z,28.00
2018-07-23T17:13:08.289Z,28.00
2018-07-23T17:15:36.609Z,28.00
2018-07-23T17:18:05.173Z,27.80
2018-07-23T17:20:33.723Z,27.70
2018-07-23T17:25:37.560Z,27.40
2018-07-23T17:28:05.858Z,27.20
2018-07-23T17:30:38.188Z,27.10
2018-07-23T17:33:07.549Z,26.90
2018-07-23T17:35:38.208Z,26.70
2018-07-23T17:38:07.572Z,26.60
2018-07-23T17:40:37.013Z,26.50
2018-07-23T17:43:05.818Z,26.50
2018-07-23T17:45:34.190Z,26.40
2018-07-23T17:48:02.491Z,26.30
2018-07-23T17:50:36.937Z,26.20
2018-07-23T17:53:08.041Z,26.10
2018-07-23T17:55:36.339Z,26.00
2018-07-23T17:58:05.076Z,25.90
2018-07-23T18:00:33.715Z,25.90
2018-07-23T18:03:02.129Z,25.80
2018-07-23T18:05:34.007Z,25.80
2018-07-23T18:08:03.311Z,25.70
2018-07-23T18:10:34.735Z,25.60
2018-07-23T18:13:04.056Z,25.60
2018-07-23T18:15:33.307Z,25.50
2018-07-23T18:18:01.661Z,25.50
2018-07-23T18:20:33.659Z,25.40
2018-07-23T18:23:01.889Z,25.30
2018-07-23T18:25:35.356Z,25.30
2018-07-23T18:28:05.696Z,25.20
2018-07-23T18:30:34.022Z,25.20
2018-07-23T18:33:02.349Z,25.10
2018-07-23T18:35:34.762Z,25.10
2018-07-23T18:38:04.035Z,25.10
2018-07-23T18:40:32.369Z,25.10
2018-07-23T18:43:00.621Z,25.00
2018-07-23T18:47:56.983Z,24.90
2018-07-23T18:50:25.368Z,24.80
2018-07-23T18:52:53.729Z,24.80
2018-07-23T18:55:21.996Z,24.70
2018-07-23T18:57:51.305Z,24.70
2018-07-23T19:00:23.244Z,24.60
2018-07-23T19:02:51.841Z,24.50
2018-07-23T19:05:21.218Z,24.40
2018-07-23T19:07:49.619Z,24.30
2018-07-23T19:10:19.133Z,24.20
2018-07-23T19:12:47.879Z,24.10
2018-07-23T19:15:16.198Z,24.10
2018-07-23T19:17:45.564Z,23.80
2018-07-23T19:20:13.971Z,23.70
2018-07-23T19:22:43.274Z,23.60
2018-07-23T19:25:12.868Z,23.30
2018-07-23T19:27:41.206Z,23.10
2018-07-23T19:30:10.637Z,23.00
2018-07-23T19:32:39.056Z,23.00
2018-07-23T19:35:07.393Z,23.00
2018-07-23T19:37:36.574Z,22.90
2018-07-23T19:40:06.032Z,22.90
2018-07-23T19:42:34.503Z,22.70
2018-07-23T19:45:04.007Z,22.60
2018-07-23T19:47:35.667Z,22.40
2018-07-23T19:50:07.327Z,22.20
2018-07-23T19:52:35.708Z,22.00
2018-07-23T19:55:03.979Z,22.00
2018-07-23T19:57:32.200Z,21.90
2018-07-23T20:02:28.524Z,21.80
2018-07-23T20:04:56.830Z,21.90
2018-07-23T20:07:25.170Z,21.90
2018-07-23T20:09:53.541Z,21.80
2018-07-23T20:12:25.492Z,21.90
2018-07-23T20:14:55.288Z,22.00
2018-07-23T20:17:23.517Z,22.10
2018-07-23T20:19:51.923Z,22.00
2018-07-23T20:22:21.269Z,22.00
2018-07-23T20:24:50.590Z,21.90
2018-07-23T20:27:18.889Z,21.60
2018-07-23T20:29:48.228Z,21.50
2018-07-23T20:32:17.450Z,21.40
2018-07-23T20:34:46.762Z,21.30
2018-07-23T20:37:18.568Z,21.20
2018-07-23T20:39:47.112Z,21.00
2018-07-23T20:42:15.642Z,21.00
2018-07-23T20:44:44.544Z,20.90
2018-07-23T20:47:13.887Z,20.70
2018-07-23T20:49:43.189Z,20.70
2018-07-23T20:52:12.543Z,20.50
2018-07-23T20:54:46.109Z,20.40
2018-07-23T20:57:14.385Z,20.30
2018-07-23T21:02:17.370Z,20.20
2018-07-23T21:04:46.701Z,20.10
2018-07-23T21:07:15.018Z,20.20
2018-07-23T21:09:43.336Z,20.20
2018-07-23T21:12:11.575Z,20.10
2018-07-23T21:14:41.116Z,20.10
2018-07-23T21:17:09.420Z,20.10
2018-07-23T21:19:47.482Z,20.00
2018-07-23T21:22:15.752Z,19.90
2018-07-23T21:24:44.998Z,19.90
2018-07-23T21:27:14.351Z,19.80
2018-07-23T21:29:42.801Z,19.70
2018-07-23T21:32:11.188Z,19.90
2018-07-23T21:34:41.461Z,20.00
2018-07-23T21:37:09.770Z,20.00
2018-07-23T21:39:41.636Z,20.00
2018-07-23T21:42:10.981Z,20.00
2018-07-23T21:44:39.244Z,19.90
2018-07-23T21:47:07.512Z,19.80
2018-07-23T21:49:36.043Z,19.90
2018-07-23T21:52:04.419Z,20.00
2018-07-23T21:54:32.768Z,20.00
2018-07-23T21:57:03.184Z,20.10
2018-07-23T21:59:31.897Z,20.20
2018-07-23T22:02:00.233Z,20.20
2018-07-23T22:04:28.470Z,20.30
2018-07-23T22:06:57.841Z,20.30
2018-07-23T22:09:31.845Z,20.30
2018-07-23T22:12:00.258Z,20.30
2018-07-23T22:15:53.066Z,20.30
2018-07-23T22:18:22.462Z,20.30
2018-07-23T22:20:50.758Z,20.30
2018-07-23T22:25:48.938Z,20.20
2018-07-23T22:28:17.282Z,20.10
2018-07-23T22:30:46.667Z,20.00
2018-07-23T22:33:16.888Z,19.90
2018-07-23T22:35:45.260Z,19.70
2018-07-23T22:38:13.596Z,19.40
2018-07-23T22:40:42.050Z,19.20
2018-07-23T22:43:10.388Z,19.00
2018-07-23T22:45:38.660Z,18.90
2018-07-23T22:48:07.156Z,18.80
2018-07-23T22:50:35.387Z,18.70
2018-07-23T22:53:05.890Z,18.60
2018-07-23T22:55:34.607Z,18.60
2018-07-23T22:58:06.435Z,18.50
2018-07-23T23:00:35.045Z,18.80
2018-07-23T23:03:03.315Z,18.90
2018-07-23T23:05:32.663Z,19.00
2018-07-23T23:08:04.806Z,19.10
2018-07-23T23:10:33.070Z,19.00
2018-07-23T23:13:01.353Z,19.10
2018-07-23T23:15:29.744Z,19.10
2018-07-23T23:18:00.767Z,19.10
2018-07-23T23:20:30.051Z,19.30
2018-07-23T23:22:58.334Z,19.40
2018-07-23T23:25:27.660Z,19.50
2018-07-23T23:27:55.917Z,19.50
2018-07-23T23:30:24.408Z,19.50
2018-07-23T23:32:52.609Z,19.40
2018-07-23T23:35:22.161Z,19.40
2018-07-23T23:37:50.364Z,19.40
2018-07-23T23:40:19.643Z,19.30
2018-07-23T23:42:48.947Z,19.10
2018-07-23T23:45:17.242Z,19.20
2018-07-23T23:47:45.524Z,19.30
2018-07-23T23:50:13.920Z,19.30
2018-07-23T23:52:42.994Z,19.40
2018-07-23T23:55:11.285Z,19.40
